Time;durP1;ratioP1;P1;durP2;ratioP2;P2;SDS_P1;SDS_P2;PMS_P1;PMS_P2;Temp;Humidity;BMP_temperature;BMP_pressure;BME280_temperature;BME280_humidity;BME280_pressure;Samples;Min_cycle;Max_cycle;Signal;HPM_P1;HPM_P2
2022/05/08 00:00:28;;;;;;;;;24.50;23.00;;;;;18.19;55.32;102219.09;2393659;28;46296;-82
2022/05/08 00:01:38;;;;;;;;;31.25;28.25;;;;;18.20;55.55;102231.50;2396292;28;45224;-82
2022/05/08 00:02:52;;;;;;;;;30.00;23.00;;;;;18.13;54.51;102225.53;2402889;28;46256;-82
2022/05/08 00:04:03;;;;;;;;;28.25;23.00;;;;;18.10;55.20;102221.19;2402796;28;45191;-82
2022/05/08 00:05:13;;;;;;;;;28.25;26.00;;;;;18.10;54.92;102226.53;2403079;28;45322;-82
2022/05/08 00:06:23;;;;;;;;;31.75;25.25;;;;;18.10;55.05;102223.00;2403026;28;45209;-82
2022/05/08 00:07:34;;;;;;;;;28.75;26.75;;;;;18.09;54.73;102221.28;2398673;28;46185;-82
2022/05/08 00:08:44;;;;;;;;;26.25;23.25;;;;;18.07;54.62;102220.47;2393707;28;44610;-82
2022/05/08 00:09:55;;;;;;;;;18.00;16.25;;;;;18.06;54.87;102216.06;2383518;28;47293;-82
2022/05/08 00:11:06;;;;;;;;;27.50;23.00;;;;;18.04;54.82;102221.47;2390238;28;45374;-82
2022/05/08 00:12:17;;;;;;;;;27.50;23.25;;;;;18.01;54.68;102221.59;2383999;28;48177;-82
2022/05/08 00:13:30;;;;;;;;;24.50;21.00;;;;;17.97;54.78;102220.00;2386671;28;45521;-82
2022/05/08 00:14:41;;;;;;;;;31.75;25.00;;;;;17.96;55.45;102218.25;2402737;28;45478;-82
2022/05/08 00:15:51;;;;;;;;;25.00;24.00;;;;;17.89;55.57;102220.31;2403035;28;45468;-82
2022/05/08 00:17:01;;;;;;;;;25.25;20.50;;;;;17.81;55.27;102217.94;2402850;28;46562;-82
2022/05/08 00:18:12;;;;;;;;;26.50;24.25;;;;;17.76;55.92;102220.78;2403137;28;45165;-82
2022/05/08 00:19:22;;;;;;;;;27.50;22.75;;;;;17.74;55.28;102221.78;2402129;28;45257;-82
2022/05/08 00:20:33;;;;;;;;;19.75;18.75;;;;;17.71;55.99;102221.91;2402365;28;45243;-82
2022/05/08 00:21:43;;;;;;;;;25.50;20.00;;;;;17.68;55.78;102214.06;2399480;28;46127;-82
2022/05/08 00:22:53;;;;;;;;;23.50;21.00;;;;;17.68;55.55;102211.41;2393770;28;45181;-82
2022/05/08 00:24:04;;;;;;;;;24.00;21.75;;;;;17.69;56.12;102213.13;2391238;28;47100;-82
2022/05/08 00:25:14;;;;;;;;;21.50;17.50;;;;;17.69;55.68;102210.47;2395593;28;44590;-82
2022/05/08 00:26:25;;;;;;;;;26.50;22.75;;;;;17.69;55.67;102214.00;2402199;28;46404;-82
2022/05/08 00:27:35;;;;;;;;;24.00;22.00;;;;;17.70;55.81;102214.88;2403034;28;45215;-82
2022/05/08 00:28:45;;;;;;;;;19.75;17.50;;;;;17.70;55.46;102206.88;2402632;28;45441;-82
2022/05/08 00:29:56;;;;;;;;;23.00;22.75;;;;;17.71;55.54;102205.94;2402067;28;45336;-83
2022/05/08 00:31:11;;;;;;;;;24.00;19.00;;;;;17.71;55.40;102213.91;2402911;28;46225;-82
2022/05/08 00:32:21;;;;;;;;;23.50;21.00;;;;;17.70;55.74;102213.06;2402099;28;45497;-82
2022/05/08 00:33:31;;;;;;;;;23.75;22.25;;;;;17.69;55.70;102211.34;2392595;28;47275;-82
2022/05/08 00:34:42;;;;;;;;;16.75;15.50;;;;;17.71;55.20;102214.78;2395220;28;45259;-82
2022/05/08 00:35:53;;;;;;;;;25.50;22.50;;;;;17.68;56.00;102203.44;2393448;28;45436;-82
2022/05/08 00:37:05;;;;;;;;;26.75;23.75;;;;;17.64;55.74;102208.00;2382971;28;45269;-82
2022/05/08 00:38:15;;;;;;;;;25.75;20.25;;;;;17.60;55.34;102211.69;2386161;28;45604;-82
2022/05/08 00:39:25;;;;;;;;;23.25;16.25;;;;;17.59;55.51;102207.31;2393543;28;45319;-82
2022/05/08 00:40:37;;;;;;;;;19.50;17.50;;;;;17.59;55.50;102210.84;2393192;28;45569;-82
2022/05/08 00:41:48;;;;;;;;;21.25;20.50;;;;;17.62;56.02;102216.03;2395831;28;45224;-82
2022/05/08 00:43:28;;;;;;;;;25.25;22.75;;;;;17.60;56.46;102212.56;2402636;28;46069;-82
2022/05/08 00:44:39;;;;;;;;;28.25;25.75;;;;;17.57;55.63;102207.38;2400501;28;45336;-82
2022/05/08 00:45:49;;;;;;;;;24.25;18.75;;;;;17.57;56.11;102212.69;2393337;28;46170;-83
2022/05/08 00:46:59;;;;;;;;;23.50;20.50;;;;;17.58;56.09;102210.91;2393359;28;44686;-83
2022/05/08 00:48:10;;;;;;;;;24.00;22.75;;;;;17.60;55.62;102225.00;2397733;28;45427;-81
2022/05/08 00:49:20;;;;;;;;;22.25;18.75;;;;;17.60;55.85;102217.03;2402208;28;45289;-81
2022/05/08 00:50:30;;;;;;;;;22.00;21.75;;;;;17.60;55.69;102217.03;2401981;28;45369;-81
2022/05/08 00:51:43;;;;;;;;;29.00;24.50;;;;;17.58;55.77;102222.38;2402106;28;44606;-81
2022/05/08 00:52:53;;;;;;;;;28.00;25.25;;;;;17.53;55.94;102211.09;2393005;28;45690;-80
2022/05/08 00:54:04;;;;;;;;;22.75;20.50;;;;;17.51;56.14;102215.56;2393464;28;44549;-80
2022/05/08 00:55:14;;;;;;;;;20.50;19.75;;;;;17.51;55.74;102221.75;2393098;28;45414;-80
2022/05/08 00:56:25;;;;;;;;;22.00;20.75;;;;;17.51;56.02;102219.09;2396921;28;45208;-80
2022/05/08 00:57:36;;;;;;;;;26.25;20.75;;;;;17.46;56.20;102218.41;2402184;28;46338;-79
2022/05/08 00:58:50;;;;;;;;;24.75;22.00;;;;;17.46;56.03;102221.06;2393460;28;45158;-80
2022/05/08 01:00:03;;;;;;;;;23.75;20.50;;;;;17.42;56.01;102219.47;2393428;28;46354;-79
2022/05/08 01:01:14;;;;;;;;;24.00;21.50;;;;;17.40;56.03;102221.31;2395353;28;44694;-79
2022/05/08 01:02:24;;;;;;;;;20.50;19.25;;;;;17.38;56.72;102218.72;2392722;28;45445;-79
2022/05/08 01:03:35;;;;;;;;;21.25;18.25;;;;;17.37;56.19;102221.44;2393532;28;45171;-79
2022/05/08 01:04:46;;;;;;;;;15.50;14.25;;;;;17.35;56.10;102223.28;2393185;28;46208;-79
2022/05/08 01:05:57;;;;;;;;;23.50;21.75;;;;;17.36;56.48;102222.38;2393316;28;46534;-79
2022/05/08 01:07:08;;;;;;;;;20.75;18.50;;;;;17.36;56.54;102223.22;2393495;28;45406;-79
2022/05/08 01:08:20;;;;;;;;;24.50;21.00;;;;;17.36;55.96;102235.66;2402862;28;45266;-79
2022/05/08 01:09:31;;;;;;;;;19.75;14.75;;;;;17.34;56.23;102222.41;2401783;28;45993;-79
2022/05/08 01:10:41;;;;;;;;;14.75;12.75;;;;;17.34;55.74;102222.41;2401713;28;45424;-79
2022/05/08 01:11:51;;;;;;;;;25.75;23.75;;;;;17.34;56.36;102224.19;2402462;28;45345;-79
2022/05/08 01:13:03;;;;;;;;;24.75;20.00;;;;;17.31;56.40;102228.72;2393490;28;45224;-79
2022/05/08 01:14:13;;;;;;;;;21.50;17.00;;;;;17.30;56.54;102229.66;2393156;28;45318;-80
2022/05/08 01:15:24;;;;;;;;;20.00;18.00;;;;;17.30;56.71;102227.00;2393328;28;45220;-80
2022/05/08 01:16:34;;;;;;;;;19.75;19.00;;;;;17.29;56.32;102229.69;2402284;28;45061;-80
2022/05/08 01:17:45;;;;;;;;;20.00;19.50;;;;;17.27;56.29;102231.53;2396786;28;45167;-80
2022/05/08 01:18:56;;;;;;;;;21.75;20.00;;;;;17.23;56.19;102227.28;2394414;28;46223;-80
2022/05/08 01:20:06;;;;;;;;;24.25;20.25;;;;;17.19;57.78;102221.19;2393524;28;45245;-80
2022/05/08 01:21:22;;;;;;;;;20.25;19.00;;;;;17.13;57.00;102224.06;2393133;28;46303;-80
2022/05/08 01:22:33;;;;;;;;;16.00;16.00;;;;;17.07;57.35;102226.03;2390199;28;45241;-80
2022/05/08 01:23:45;;;;;;;;;20.50;17.50;;;;;17.02;57.20;102222.66;2392561;28;45319;-80
2022/05/08 01:24:59;;;;;;;;;25.00;21.00;;;;;17.00;57.62;102221.84;2393144;28;45287;-80
2022/05/08 01:26:09;;;;;;;;;24.00;19.50;;;;;16.99;57.15;102222.78;2392874;28;45463;-80
2022/05/08 01:27:20;;;;;;;;;22.25;21.25;;;;;16.99;57.21;102217.47;2397318;28;45238;-80
2022/05/08 01:28:30;;;;;;;;;19.75;17.50;;;;;17.01;57.29;102220.94;2401056;28;46251;-80
2022/05/08 01:29:41;;;;;;;;;22.50;20.75;;;;;17.02;57.09;102217.34;2393330;28;45232;-80
2022/05/08 01:30:53;;;;;;;;;18.50;16.75;;;;;17.02;57.31;102214.69;2389514;28;47142;-80
2022/05/08 01:32:04;;;;;;;;;25.50;21.75;;;;;17.03;57.01;102218.22;2395612;28;45275;-80
2022/05/08 01:33:15;;;;;;;;;22.75;21.25;;;;;17.01;57.54;102215.63;2403222;28;46464;-80
2022/05/08 01:34:25;;;;;;;;;14.75;14.50;;;;;17.01;57.11;102214.75;2392947;28;45292;-78
2022/05/08 01:35:37;;;;;;;;;20.50;17.00;;;;;16.98;56.95;102211.31;2385679;28;46209;-77
2022/05/08 01:36:47;;;;;;;;;25.75;21.75;;;;;16.97;57.33;102216.66;2393323;28;45244;-77
2022/05/08 01:37:57;;;;;;;;;22.50;20.50;;;;;16.92;57.25;102208.84;2392940;28;45463;-77
2022/05/08 01:39:08;;;;;;;;;25.50;23.00;;;;;16.91;57.58;102216.88;2386013;28;45323;-79
2022/05/08 01:40:19;;;;;;;;;31.00;22.25;;;;;16.85;57.76;102213.53;2383868;28;47521;-79
2022/05/08 01:41:29;;;;;;;;;27.00;25.75;;;;;16.82;57.82;102226.03;2386271;28;45382;-79
2022/05/08 01:42:39;;;;;;;;;22.75;20.50;;;;;16.80;57.56;102218.13;2392944;28;46309;-79
2022/05/08 01:43:50;;;;;;;;;24.25;22.00;;;;;16.76;58.13;102217.41;2393146;28;44621;-79
2022/05/08 01:45:00;;;;;;;;;30.00;22.75;;;;;16.72;58.05;102221.06;2383002;28;46851;-79
2022/05/08 01:46:12;;;;;;;;;26.25;24.00;;;;;16.68;58.72;102221.22;2385835;28;45357;-79
2022/05/08 01:48:51;;;;;;;;;21.00;20.00;;;;;16.63;58.40;102221.38;2393413;28;44732;-79
2022/05/08 01:50:01;;;;;;;;;23.50;23.25;;;;;16.61;58.68;102225.88;2385347;28;47483;-81
2022/05/08 01:51:12;;;;;;;;;24.00;22.25;;;;;16.54;58.49;102218.13;2396864;28;45275;-81
2022/05/08 01:52:23;;;;;;;;;24.25;21.25;;;;;16.51;59.15;102220.03;2403878;28;46189;-80
2022/05/08 01:53:35;;;;;;;;;28.00;24.00;;;;;16.45;60.05;102220.22;2403455;28;44616;-78
2022/05/08 01:54:45;;;;;;;;;26.25;21.50;;;;;16.41;58.82;102225.66;2403717;28;45412;-78
2022/05/08 01:55:56;;;;;;;;;25.50;21.50;;;;;16.40;58.81;102221.25;2404170;28;45211;-78
2022/05/08 01:57:07;;;;;;;;;26.75;23.00;;;;;16.40;59.00;102225.69;2395385;28;45344;-77
2022/05/08 01:58:17;;;;;;;;;15.00;14.25;;;;;16.40;58.73;102221.25;2403978;28;45444;-78
2022/05/08 01:59:28;;;;;;;;;26.75;18.00;;;;;16.40;58.91;102220.38;2403897;28;46061;-78
2022/05/08 02:00:38;;;;;;;;;25.50;20.50;;;;;16.42;59.05;102219.41;2404082;28;45294;-78
2022/05/08 02:01:49;;;;;;;;;24.50;22.00;;;;;16.43;58.74;102220.28;2393664;28;46907;-78
2022/05/08 02:03:00;;;;;;;;;21.00;19.75;;;;;16.45;58.79;102214.91;2396718;28;44651;-77
2022/05/08 02:04:15;;;;;;;;;25.50;21.00;;;;;16.48;59.00;102222.78;2403757;28;46485;-78
2022/05/08 02:05:28;;;;;;;;;27.00;24.00;;;;;16.46;59.00;102220.19;2394426;28;45307;-78
2022/05/08 02:06:38;;;;;;;;;21.75;20.75;;;;;16.44;59.43;102215.84;2387591;28;48132;-78
2022/05/08 02:07:49;;;;;;;;;26.25;22.00;;;;;16.42;59.11;102222.06;2389796;28;44625;-78
2022/05/08 02:09:00;;;;;;;;;22.50;19.50;;;;;16.39;58.56;102214.25;2394450;28;46318;-78
2022/05/08 02:10:14;;;;;;;;;21.75;20.50;;;;;16.42;58.76;102210.63;2394419;28;44771;-78
2022/05/08 02:11:25;;;;;;;;;22.00;18.50;;;;;16.44;58.67;102221.16;2394156;28;46706;-78
2022/05/08 02:12:35;;;;;;;;;28.50;23.50;;;;;16.41;59.30;102214.19;2394688;28;45250;-78
2022/05/08 02:13:46;;;;;;;;;27.25;22.25;;;;;16.39;58.90;102222.19;2394269;28;45254;-79
2022/05/08 02:14:56;;;;;;;;;22.25;17.25;;;;;16.35;59.10;102209.94;2394489;28;44764;-80
2022/05/08 02:16:10;;;;;;;;;25.50;22.50;;;;;16.33;59.19;102211.78;2394379;28;46332;-80
2022/05/08 02:17:22;;;;;;;;;24.75;20.75;;;;;16.31;59.17;102216.28;2399751;28;44742;-79
2022/05/08 02:18:33;;;;;;;;;22.75;21.25;;;;;16.27;59.10;102214.66;2403826;28;45248;-79
2022/05/08 02:19:44;;;;;;;;;23.50;20.00;;;;;16.26;59.10;102215.56;2404028;28;45239;-80
2022/05/08 02:20:54;;;;;;;;;20.50;17.25;;;;;16.24;59.82;102215.63;2401842;28;45658;-80
2022/05/08 02:22:05;;;;;;;;;26.50;25.50;;;;;16.23;59.48;102213.00;2403786;28;45279;-80
2022/05/08 02:23:15;;;;;;;;;26.75;22.00;;;;;16.24;59.26;102214.75;2393540;28;46877;-79
2022/05/08 02:24:25;;;;;;;;;25.50;24.25;;;;;16.20;59.32;102212.19;2396498;28;45335;-79
2022/05/08 02:25:37;;;;;;;;;25.00;21.00;;;;;16.22;59.40;102214.81;2403242;28;45369;-79
2022/05/08 02:26:48;;;;;;;;;26.50;23.50;;;;;16.22;59.48;102211.28;2401029;28;45191;-79
2022/05/08 02:27:58;;;;;;;;;30.25;25.00;;;;;16.20;59.58;102212.19;2401361;28;45259;-79
2022/05/08 02:29:08;;;;;;;;;25.25;23.75;;;;;16.20;59.99;102220.16;2403823;28;44754;-80
2022/05/08 02:30:21;;;;;;;;;25.75;21.75;;;;;16.20;59.84;102219.28;2398751;28;45257;-80
2022/05/08 02:31:32;;;;;;;;;26.75;22.75;;;;;16.17;60.01;102225.53;2394406;28;45164;-80
2022/05/08 02:32:43;;;;;;;;;26.25;21.50;;;;;16.14;59.52;102227.44;2394291;28;45230;-78
2022/05/08 02:33:53;;;;;;;;;26.00;22.75;;;;;16.13;60.00;102223.06;2396100;28;45275;-78
2022/05/08 02:35:06;;;;;;;;;23.00;22.50;;;;;16.14;59.50;102225.66;2394278;28;45476;-78
2022/05/08 02:36:16;;;;;;;;;26.75;26.00;;;;;16.13;59.81;102221.28;2384324;28;44696;-79
2022/05/08 02:37:27;;;;;;;;;27.75;24.25;;;;;16.13;59.94;102226.56;2389654;28;45383;-79
2022/05/08 02:38:38;;;;;;;;;25.75;23.75;;;;;16.08;60.25;102226.72;2402523;28;45287;-78
2022/05/08 02:39:48;;;;;;;;;34.00;25.50;;;;;16.06;60.32;102227.69;2403474;28;45632;-77
2022/05/08 02:40:58;;;;;;;;;21.75;19.50;;;;;16.02;59.88;102226.03;2403448;28;44703;-76
2022/05/08 02:42:09;;;;;;;;;24.50;20.75;;;;;16.00;60.18;102227.88;2394114;28;45384;-76
2022/05/08 02:43:21;;;;;;;;;28.50;24.75;;;;;15.98;59.66;102230.56;2384244;28;45232;-76
2022/05/08 02:44:31;;;;;;;;;19.00;16.50;;;;;15.98;59.98;102231.44;2387069;28;46264;-76
2022/05/08 02:45:41;;;;;;;;;29.75;26.00;;;;;15.98;60.62;102227.91;2394398;28;45161;-76
2022/05/08 02:46:52;;;;;;;;;28.50;25.00;;;;;15.96;60.33;102227.97;2385874;28;47465;-76
2022/05/08 02:48:02;;;;;;;;;26.00;22.75;;;;;15.94;60.12;102228.94;2393603;28;45164;-77
2022/05/08 02:49:12;;;;;;;;;28.25;23.25;;;;;15.95;60.18;102228.03;2399155;28;45483;-79
2022/05/08 02:50:24;;;;;;;;;30.50;27.25;;;;;15.97;60.40;102220.88;2394225;28;45232;-78
2022/05/08 02:51:34;;;;;;;;;26.50;21.75;;;;;16.00;60.08;102230.53;2392815;28;47860;-78
2022/05/08 02:52:44;;;;;;;;;23.50;22.50;;;;;16.02;59.96;102234.00;2393267;28;45473;-78
2022/05/08 02:53:55;;;;;;;;;25.75;23.00;;;;;16.03;59.93;102236.59;2393818;28;45370;-78
2022/05/08 02:59:34;;;;;;;;;25.25;24.00;;;;;15.98;60.25;102234.09;2401389;28;45864;-78
2022/05/08 03:00:46;;;;;;;;;26.25;21.25;;;;;15.96;60.60;102235.03;2384087;28;44643;-77
2022/05/08 03:01:56;;;;;;;;;28.00;26.75;;;;;15.92;61.84;102241.38;2377473;28;45336;-77
2022/05/08 03:03:08;;;;;;;;;26.75;23.50;;;;;15.86;60.82;102238.00;2386915;28;45295;-77
2022/05/08 03:04:18;;;;;;;;;33.50;26.50;;;;;15.81;61.23;102237.28;2394035;28;46572;-77
2022/05/08 03:05:28;;;;;;;;;25.75;22.00;;;;;15.76;60.87;102244.50;2394242;28;44704;-78
2022/05/08 03:06:39;;;;;;;;;31.00;26.75;;;;;15.74;60.49;102241.91;2393833;28;45592;-79
2022/05/08 03:07:49;;;;;;;;;33.75;24.75;;;;;15.73;61.03;102245.44;2398700;28;45330;-78
2022/05/08 03:08:59;;;;;;;;;25.75;23.75;;;;;15.71;61.28;102241.13;2403473;28;46089;-78
2022/05/08 03:10:11;;;;;;;;;33.25;28.00;;;;;15.70;60.93;102250.88;2394541;28;45259;-78
2022/05/08 03:11:29;;;;;;;;;28.75;28.25;;;;;15.69;60.64;102241.16;2393792;28;45661;-78
2022/05/08 03:12:39;;;;;;;;;34.25;27.00;;;;;15.68;61.78;102238.59;2394113;28;44731;-79
2022/05/08 03:13:50;;;;;;;;;30.25;23.75;;;;;15.65;61.22;102247.50;2394017;28;45451;-78
2022/05/08 03:15:01;;;;;;;;;35.00;27.25;;;;;15.63;61.28;102246.69;2392481;28;45300;-80
2022/05/08 03:16:11;;;;;;;;;24.75;23.25;;;;;15.61;62.12;102243.19;2386200;28;47012;-80
2022/05/08 03:17:22;;;;;;;;;34.50;27.00;;;;;15.58;61.43;102238.00;2395985;28;45276;-79
2022/05/08 03:18:34;;;;;;;;;36.00;25.50;;;;;15.56;62.15;102240.66;2402892;28;46517;-79
2022/05/08 03:19:45;;;;;;;;;21.50;20.00;;;;;15.50;61.33;102233.78;2393333;28;45188;-80
2022/05/08 03:20:56;;;;;;;;;37.75;29.50;;;;;15.50;61.54;102246.16;2394549;28;46131;-79
2022/05/08 03:22:06;;;;;;;;;32.00;24.25;;;;;15.50;61.63;102240.88;2394201;28;45299;-79
2022/05/08 03:23:17;;;;;;;;;27.50;24.75;;;;;15.46;61.84;102242.72;2393885;28;45354;-79
2022/05/08 03:24:29;;;;;;;;;24.50;23.50;;;;;15.44;61.65;102247.22;2393996;28;45376;-79
2022/05/08 03:25:39;;;;;;;;;36.00;29.25;;;;;15.41;62.27;102242.00;2383757;28;46361;-78
2022/05/08 03:26:50;;;;;;;;;30.50;27.50;;;;;15.39;62.68;102241.16;2395049;28;44719;-78
2022/05/08 03:28:01;;;;;;;;;31.00;22.50;;;;;15.38;62.48;102250.06;2403247;28;45257;-78
2022/05/08 03:29:12;;;;;;;;;32.25;28.75;;;;;15.32;62.54;102237.84;2401741;28;45216;-78
2022/05/08 03:30:23;;;;;;;;;30.00;25.75;;;;;15.29;63.50;102244.09;2393914;28;46309;-78
2022/05/08 03:31:35;;;;;;;;;31.75;28.00;;;;;15.26;62.28;102244.19;2402314;28;46671;-81
2022/05/08 03:32:45;;;;;;;;;36.25;31.50;;;;;15.25;62.75;102241.59;2403229;28;46501;-80
2022/05/08 03:33:55;;;;;;;;;30.25;27.75;;;;;15.23;62.22;102239.00;2399636;28;45516;-80
2022/05/08 03:35:06;;;;;;;;;42.75;31.75;;;;;15.23;62.36;102239.00;2395974;28;45318;-80
2022/05/08 03:36:16;;;;;;;;;31.75;28.25;;;;;15.24;62.38;102245.13;2398370;28;45274;-80
2022/05/08 03:37:27;;;;;;;;;38.50;32.50;;;;;15.21;63.32;102243.44;2391526;28;47541;-80
2022/05/08 03:38:45;;;;;;;;;32.00;28.50;;;;;15.17;62.47;102239.16;2386317;28;45394;-80
2022/05/08 03:39:56;;;;;;;;;39.50;32.50;;;;;15.14;62.53;102240.09;2387196;28;47217;-79
2022/05/08 03:41:08;;;;;;;;;43.75;34.75;;;;;15.13;62.69;102237.50;2395331;28;45212;-79
2022/05/08 03:42:19;;;;;;;;;36.75;31.75;;;;;15.14;62.35;102244.53;2393019;28;47184;-78
2022/05/08 03:43:29;;;;;;;;;45.00;34.00;;;;;15.16;62.65;102237.44;2396063;28;45192;-80
2022/05/08 03:44:40;;;;;;;;;43.75;37.00;;;;;15.17;62.72;102244.44;2403039;28;45310;-80
2022/05/08 03:45:50;;;;;;;;;39.50;32.50;;;;;15.15;62.54;102241.84;2399909;28;45350;-80
2022/05/08 03:47:01;;;;;;;;;45.50;33.25;;;;;15.14;62.75;102241.88;2402978;28;46471;-80
2022/05/08 03:48:11;;;;;;;;;42.00;33.50;;;;;15.12;62.78;102243.69;2402984;28;45320;-81
2022/05/08 03:49:21;;;;;;;;;42.50;35.75;;;;;15.11;62.67;102249.94;2383895;28;47356;-80
2022/05/08 03:50:32;;;;;;;;;39.25;34.50;;;;;15.11;62.52;102244.63;2392375;28;45668;-81
2022/05/08 03:51:42;;;;;;;;;43.25;36.00;;;;;15.11;63.31;102244.63;2403014;28;45255;-81
2022/05/08 03:52:52;;;;;;;;;38.50;34.00;;;;;15.09;62.56;102241.16;2403446;28;45222;-81
2022/05/08 03:54:05;;;;;;;;;35.25;32.00;;;;;15.12;62.52;102243.69;2402915;28;45347;-81
2022/05/08 03:55:16;;;;;;;;;44.00;35.25;;;;;15.11;62.67;102244.63;2403060;28;45296;-81
2022/05/08 03:56:27;;;;;;;;;50.00;38.25;;;;;15.09;62.43;102238.50;2396738;28;45449;-81
2022/05/08 03:57:38;;;;;;;;;45.50;34.50;;;;;15.11;62.66;102239.34;2393929;28;45325;-81
2022/05/08 03:58:48;;;;;;;;;46.25;37.75;;;;;15.13;62.37;102248.97;2390756;28;47263;-81
2022/05/08 03:59:59;;;;;;;;;40.25;32.75;;;;;15.13;62.38;102243.69;2395844;28;45259;-78
2022/05/08 04:01:09;;;;;;;;;39.75;35.75;;;;;15.15;63.36;102246.28;2402783;28;45396;-79
2022/05/08 04:02:20;;;;;;;;;42.75;34.50;;;;;15.16;62.83;102245.38;2393780;28;45399;-79
2022/05/08 04:03:30;;;;;;;;;46.75;35.00;;;;;15.17;62.75;102247.09;2393539;28;45262;-80
2022/05/08 04:04:41;;;;;;;;;37.50;35.25;;;;;15.16;62.58;102243.56;2393837;28;45159;-80
2022/05/08 04:05:51;;;;;;;;;48.25;37.25;;;;;15.15;62.93;102243.63;2394317;28;45399;-80
2022/05/08 04:07:02;;;;;;;;;50.75;39.00;;;;;15.14;63.39;102244.53;2402303;28;45255;-80
2022/05/08 04:08:12;;;;;;;;;35.50;31.00;;;;;15.12;62.83;102241.06;2402327;28;46686;-80
2022/05/08 04:09:22;;;;;;;;;49.75;41.50;;;;;15.11;63.60;102249.94;2403245;28;44573;-80
2022/05/08 04:10:33;;;;;;;;;42.50;36.00;;;;;15.11;63.19;102252.56;2395230;28;45447;-80
2022/05/08 04:11:43;;;;;;;;;44.50;35.75;;;;;15.07;62.62;102246.47;2401501;28;45234;-80
2022/05/08 04:12:54;;;;;;;;;48.75;36.50;;;;;15.07;63.04;102249.13;2399764;28;45716;-80
2022/05/08 04:14:04;;;;;;;;;50.00;38.75;;;;;15.07;64.05;102252.66;2393599;28;45224;-78
2022/05/08 04:16:43;;;;;;;;;43.50;35.50;;;;;15.03;63.51;102253.66;2397785;28;45408;-78
2022/05/08 04:17:54;;;;;;;;;41.75;35.75;;;;;15.03;62.97;102248.38;2402000;28;45413;-79
2022/05/08 04:19:06;;;;;;;;;50.00;39.00;;;;;15.04;63.33;102244.78;2403041;28;45213;-79
2022/05/08 04:20:17;;;;;;;;;48.25;34.50;;;;;15.03;63.19;102244.84;2402849;28;46631;-79
2022/05/08 04:21:27;;;;;;;;;44.50;36.00;;;;;15.02;63.21;102243.09;2392853;28;45339;-81
2022/05/08 04:24:19;;;;;;;;;54.00;39.50;;;;;15.03;63.50;102245.72;2403118;28;44617;-80
2022/05/08 04:25:29;;;;;;;;;53.25;42.25;;;;;15.03;64.26;102243.06;2392217;28;47735;-80
2022/05/08 04:26:40;;;;;;;;;52.75;40.50;;;;;14.99;63.57;102245.84;2395645;28;45418;-79
2022/05/08 04:27:50;;;;;;;;;34.25;24.50;;;;;14.98;63.57;102249.38;2389898;28;47184;-78
2022/05/08 04:29:01;;;;;;;;;49.50;39.25;;;;;14.98;63.40;102244.09;2386081;28;45236;-78
2022/05/08 04:30:12;;;;;;;;;56.25;41.25;;;;;15.00;64.33;102250.22;2395618;28;46731;-79
2022/05/08 04:31:22;;;;;;;;;51.50;40.75;;;;;14.99;63.63;102249.34;2392746;28;44668;-78
2022/05/08 04:32:33;;;;;;;;;54.75;42.50;;;;;15.00;63.86;102248.44;2392607;28;48307;-77
2022/05/08 04:33:44;;;;;;;;;48.00;36.75;;;;;15.01;63.82;102250.19;2398010;28;44537;-77
2022/05/08 04:34:54;;;;;;;;;55.25;44.25;;;;;14.98;64.72;102250.25;2380864;28;46773;-76
2022/05/08 04:36:05;;;;;;;;;52.50;39.00;;;;;14.94;64.12;102252.13;2387479;28;45156;-76
2022/05/08 04:37:15;;;;;;;;;43.25;34.25;;;;;14.91;64.18;102254.88;2401646;28;45289;-77
2022/05/08 04:38:25;;;;;;;;;50.00;37.75;;;;;14.90;64.68;102257.53;2400319;28;45374;-76
2022/05/08 04:39:36;;;;;;;;;49.25;37.50;;;;;14.87;64.24;102257.63;2393366;28;45462;-77
2022/05/08 04:40:46;;;;;;;;;54.25;41.75;;;;;14.83;64.80;102251.50;2393187;28;45414;-77
2022/05/08 04:41:57;;;;;;;;;52.00;38.50;;;;;14.79;64.46;102260.47;2387472;28;47693;-77
2022/05/08 04:43:08;;;;;;;;;56.75;40.50;;;;;14.76;64.43;102255.25;2392965;28;45276;-77
2022/05/08 04:44:18;;;;;;;;;50.75;38.50;;;;;14.76;63.99;102256.13;2383310;28;47333;-77
2022/05/08 04:45:29;;;;;;;;;45.25;36.50;;;;;14.73;65.24;102262.34;2381230;28;44677;-78
2022/05/08 04:46:39;;;;;;;;;50.00;40.25;;;;;14.71;64.86;102265.94;2389141;28;47103;-79
2022/05/08 04:47:50;;;;;;;;;48.75;39.00;;;;;14.69;64.62;102260.66;2392869;28;45294;-79
2022/05/08 04:49:00;;;;;;;;;51.75;39.75;;;;;14.72;64.58;102260.59;2397536;28;45436;-79
2022/05/08 04:50:10;;;;;;;;;52.25;42.50;;;;;14.77;65.16;102262.25;2400936;28;44727;-79
2022/05/08 04:51:21;;;;;;;;;53.25;42.75;;;;;14.74;64.72;102264.06;2394784;28;45272;-79
2022/05/08 04:52:31;;;;;;;;;48.00;39.50;;;;;14.77;64.58;102273.72;2402737;28;45223;-79
2022/05/08 04:53:41;;;;;;;;;51.50;41.25;;;;;14.78;65.42;102269.28;2399237;28;45226;-79
2022/05/08 04:54:52;;;;;;;;;50.50;39.00;;;;;14.77;64.44;102275.47;2402425;28;44726;-79
2022/05/08 04:56:02;;;;;;;;;51.50;42.50;;;;;14.78;64.99;102274.59;2397330;28;46651;-79
2022/05/08 04:57:13;;;;;;;;;49.50;41.00;;;;;14.78;64.75;102278.09;2402808;28;44561;-79
2022/05/08 04:58:23;;;;;;;;;46.50;37.00;;;;;14.79;64.76;102274.53;2402655;28;45282;-79
2022/05/08 04:59:34;;;;;;;;;59.75;41.75;;;;;14.82;64.42;102284.19;2402686;28;45176;-79
2022/05/08 05:00:44;;;;;;;;;58.50;45.00;;;;;14.84;64.29;102279.75;2392479;28;47044;-80
2022/05/08 05:01:55;;;;;;;;;50.50;42.00;;;;;14.87;64.33;102284.09;2394668;28;45184;-80
2022/05/08 05:03:06;;;;;;;;;43.75;37.50;;;;;14.91;64.50;102283.13;2393295;28;45452;-80
2022/05/08 05:04:16;;;;;;;;;50.75;40.25;;;;;14.91;64.69;102285.75;2393376;28;45240;-80
2022/05/08 05:05:27;;;;;;;;;44.25;36.25;;;;;14.90;64.43;102284.00;2385592;28;48291;-80
2022/05/08 05:06:37;;;;;;;;;53.00;41.75;;;;;14.91;64.21;102286.63;2394495;28;45699;-80
2022/05/08 05:07:47;;;;;;;;;54.25;41.75;;;;;14.94;64.42;102286.53;2402677;28;46319;-80
2022/05/08 05:08:58;;;;;;;;;52.25;42.50;;;;;14.94;64.62;102288.31;2402624;28;45318;-81
2022/05/08 05:10:10;;;;;;;;;48.75;39.25;;;;;14.92;64.48;102291.00;2396920;28;45382;-80
2022/05/08 05:11:21;;;;;;;;;51.00;38.75;;;;;14.88;64.63;102294.66;2393089;28;44681;-81
2022/05/08 05:12:31;;;;;;;;;57.75;43.50;;;;;14.86;64.93;102299.13;2393175;28;46304;-81
2022/05/08 05:13:41;;;;;;;;;52.25;38.00;;;;;14.82;65.06;102295.63;2394880;28;45313;-79
2022/05/08 05:14:52;;;;;;;;;44.50;38.25;;;;;14.82;64.68;102303.56;2402732;28;46242;-79
2022/05/08 05:16:03;;;;;;;;;49.75;37.50;;;;;14.84;64.75;102298.25;2394843;28;45232;-79
2022/05/08 05:17:13;;;;;;;;;46.75;36.50;;;;;14.87;64.90;102303.50;2401890;28;46631;-79
2022/05/08 05:18:24;;;;;;;;;51.50;40.50;;;;;14.90;64.88;102306.06;2399273;28;45172;-79
2022/05/08 05:19:34;;;;;;;;;54.00;40.25;;;;;14.91;65.10;102309.59;2385628;28;47076;-80
2022/05/08 05:20:47;;;;;;;;;54.75;41.75;;;;;14.88;65.01;102305.25;2395566;28;45257;-79
2022/05/08 05:21:58;;;;;;;;;49.25;38.75;;;;;14.87;64.62;102306.13;2392391;28;48908;-79
2022/05/08 05:23:08;;;;;;;;;51.50;39.25;;;;;14.88;64.71;102304.38;2395338;28;45417;-79
2022/05/08 05:24:19;;;;;;;;;50.25;42.25;;;;;14.92;64.75;102308.66;2401377;28;45339;-79
2022/05/08 05:25:29;;;;;;;;;50.25;39.00;;;;;14.94;64.40;102306.84;2384294;28;45454;-78
2022/05/08 05:26:39;;;;;;;;;53.50;41.75;;;;;14.95;65.22;102309.47;2389763;28;45607;-79
2022/05/08 05:27:50;;;;;;;;;49.00;36.75;;;;;14.95;64.76;102308.59;2394989;28;45155;-79
2022/05/08 05:29:00;;;;;;;;;47.00;36.25;;;;;14.94;64.24;102306.84;2394707;28;45372;-79
2022/05/08 05:30:11;;;;;;;;;57.75;43.25;;;;;14.98;64.71;102305.88;2394848;28;45213;-79
2022/05/08 05:31:21;;;;;;;;;49.75;39.50;;;;;15.01;64.41;102312.84;2395284;28;47461;-80